M I D A S
Marine Information and Data Acquisition System
Tripno 838 of the Zeeleeuw from 2005-01-14 07:08:01 to 2005-01-14 14:49:40
Back to CruiseResearch ActivitiesStationsMapUnderway DataData graphs

EquipmentUnitsComment
TimeDGPSUTC
LatitudeDGPSDM.mWGS84
LongitudeDGPSDM.mWGS84
TemperatureSBE03/SBE38deg celciusITS90
ConductivitySBE21S/mITS90
SalinitySBE21 Practical Salinity Units
ChlorophylAChelsea fluorimeterg/lCalibrated in Aceton
Missing or incorrect values are displayed as -999
Sea surface data collected by the RV Zeeleeuw from 2005-01-14 07:09:25 to 2005-01-14 14:56:18
Time Latitude Longitude Temperature Conductivity Salinity ChlorophylA
2005-01-14 07:10:31 51°13.609 2°56.047 14.830603 3.205506 28.215794 -0.882377
2005-01-14 07:11:31 51°13.639 2°55.955 14.895462 3.205611 28.216201 -0.848668
2005-01-14 07:12:31 51°13.681 2°55.856 13.938347 3.2034 28.217555 -0.578993
2005-01-14 07:13:31 51°13.731 2°55.755 8.287489 3.32105 30.69408 -0.814958
2005-01-14 07:14:31 51°13.793 2°55.683 7.985975 3.18921 30.042763 -0.781249
2005-01-14 07:15:31 51°13.813 2°55.666 7.951617 3.208692 30.409364 -0.680121
2005-01-14 07:16:31 51°13.891 2°55.638 7.862609 3.210273 30.509494 -0.71383
2005-01-14 07:17:31 51°13.971 2°55.669 7.83661 3.23165 30.78598 -0.612702
2005-01-14 07:18:29 51°13.982 2°55.62 7.811753 3.249237 30.990853 -0.680121
2005-01-14 07:19:31 51°14.064 2°55.477 7.81997 3.205641 30.557842 -0.612702
2005-01-14 07:20:30 51°14.192 2°55.351 7.786049 3.185002 30.356899 -0.578993
2005-01-14 07:21:31 51°14.311 2°55.158 7.739431 3.192584 30.469767 -0.578993
2005-01-14 07:22:31 51°14.441 2°54.927 7.741788 3.21375 30.688292 -0.612702
2005-01-14 07:23:30 51°14.591 2°54.707 7.755253 3.295366 31.580034 -0.511574
2005-01-14 07:24:29 51°14.763 2°54.492 7.81908 3.426711 32.931706 -0.646411
2005-01-14 07:25:31 51°14.954 2°54.281 7.835198 3.446936 33.102286 -0.646411
2005-01-14 07:26:31 51°15.137 2°54.073 7.792227 3.449991 33.157926 -0.71383
2005-01-14 07:27:30 51°15.324 2°53.868 7.808037 3.446726 33.165257 -0.680121
2005-01-14 07:28:30 51°15.527 2°53.688 7.839279 3.473378 33.398852 -0.71383
2005-01-14 07:29:31 51°15.732 2°53.498 7.842679 3.478856 33.442129 -0.646411
2005-01-14 07:30:31 51°15.932 2°53.315 7.823476 3.491919 33.600213 -0.646411
2005-01-14 07:31:30 51°16.131 2°53.144 7.797201 3.500769 33.706172 -0.646411
2005-01-14 07:32:30 51°16.34 2°52.991 7.794269 3.492235 33.640729 -0.646411
2005-01-14 07:33:29 51°16.557 2°52.933 7.795054 3.484861 33.556164 -0.444155
2005-01-14 07:34:31 51°16.784 2°52.986 7.808769 3.505088 33.769419 -0.444155
2005-01-14 07:35:31 51°16.988 2°53.071 7.813847 3.498978 33.697527 -0.511574
2005-01-14 07:36:30 51°17.198 2°53.136 7.823529 3.498345 33.678631 -0.410446
2005-01-14 07:37:30 51°17.368 2°53.341 7.825046 3.511304 33.805126 -0.444155
2005-01-14 07:38:31 51°17.522 2°53.587 7.838127 3.472008 33.397044 -0.410446
2005-01-14 07:39:30 51°17.647 2°53.857 7.835459 3.507616 33.771346 -0.410446
2005-01-14 07:40:29 51°17.772 2°54.128 7.845975 3.507406 33.762609 -0.444155
2005-01-14 07:41:31 51°17.906 2°54.411 7.840273 3.511514 33.809003 -0.376736
2005-01-14 07:42:31 51°18.033 2°54.686 7.842836 3.514043 33.830379 -0.410446
2005-01-14 07:43:30 51°18.157 2°54.957 7.84519 3.5191 33.880431 -0.309317
2005-01-14 07:44:31 51°18.295 2°55.229 7.848277 3.519626 33.886882 -0.275608
2005-01-14 07:45:31 51°18.441 2°55.484 7.853246 3.503718 33.715883 -0.241899
2005-01-14 07:46:31 51°18.589 2°55.738 7.842313 3.513937 33.827628 -0.208189
2005-01-14 07:47:29 51°18.732 2°55.986 7.839697 3.513621 33.829928 -0.208189
2005-01-14 07:48:31 51°18.876 2°56.259 7.829285 3.516993 33.873325 -0.208189
2005-01-14 07:49:31 51°19.015 2°56.524 7.824209 3.520786 33.923703 -0.208189
2005-01-14 07:50:30 51°19.143 2°56.794 7.801703 3.518889 33.917238 -0.275608
2005-01-14 07:51:30 51°19.266 2°57.073 7.795839 3.51752 33.909896 -0.275608
2005-01-14 07:52:29 51°19.375 2°57.36 7.784321 3.517309 33.915788 -0.241899
2005-01-14 07:53:31 51°19.49 2°57.658 7.773847 3.51457 33.896207 -0.275608
2005-01-14 07:54:30 51°19.59 2°57.949 7.761801 3.515835 33.926073 -0.208189
2005-01-14 07:55:31 51°19.691 2°58.249 7.737806 3.510462 33.888014 -0.241899
2005-01-14 07:56:31 51°19.767 2°58.56 7.727063 3.509198 33.882606 -0.073352
2005-01-14 07:57:31 51°19.833 2°58.874 7.721455 3.502034 33.813065 -0.14077
2005-01-14 07:58:31 51°19.904 2°59.186 7.726015 3.501297 33.811666 -0.17448
2005-01-14 07:59:30 51°19.971 2°59.493 7.718573 3.501402 33.816055 -0.107061
2005-01-14 08:00:31 51°20.041 2°59.811 7.725596 3.495608 33.753872 -0.107061
2005-01-14 08:01:31 51°20.11 3°0.122 7.725753 3.491288 33.701034 -0.241899
2005-01-14 08:02:31 51°20.176 3°0.432 7.706044 3.493922 33.73416 -0.17448
2005-01-14 08:03:30 51°20.223 3°0.745 7.68591 3.485284 33.661764 -0.208189
2005-01-14 08:04:29 51°20.278 3°1.052 7.685858 3.46611 33.469811 -0.14077
2005-01-14 08:05:31 51°20.33 3°1.374 7.695821 3.486759 33.688147 -0.17448
2005-01-14 08:06:31 51°20.378 3°1.684 7.691311 3.484019 33.645765 -0.343027
2005-01-14 08:07:30 51°20.438 3°1.98 7.667553 3.484335 33.656456 -0.275608
2005-01-14 08:08:31 51°20.492 3°2.287 7.492276 3.439987 33.311837 -0.275608
2005-01-14 08:09:31 51°20.529 3°2.53 7.398379 3.399538 32.985043 -0.14077
2005-01-14 08:10:31 51°20.576 3°2.593 7.259552 3.371099 32.768905 -0.241899
2005-01-14 08:11:30 51°20.605 3°2.574 7.180331 3.338659 32.542957 -0.005933
2005-01-14 08:12:31 51°20.613 3°2.531 7.169444 3.328022 32.458151 0.061486
2005-01-14 08:13:31 51°20.617 3°2.487 7.191428 3.327916 32.455422 0.095195
2005-01-14 08:14:30 51°20.619 3°2.441 7.235426 3.337922 32.527826 0.297452
2005-01-14 08:15:31 51°20.622 3°2.391 7.25839 3.342451 32.553695 -0.005933
2005-01-14 08:16:31 51°20.622 3°2.341 7.258021 3.346558 32.582946 -0.005933
2005-01-14 08:17:31 51°20.621 3°2.291 7.263193 3.34561 32.573505 -0.073352
2005-01-14 08:18:30 51°20.62 3°2.243 7.28103 3.346242 32.566808 0.196324
2005-01-14 08:19:31 51°20.617 3°2.192 7.28446 3.349086 32.595122 0.061486
2005-01-14 08:20:29 51°20.619 3°2.121 7.312365 3.350034 32.599786 0.263742
2005-01-14 08:21:30 51°20.642 3°2.041 7.34068 3.364674 32.715557 0.061486
2005-01-14 08:22:30 51°20.69 3°2.022 7.31015 3.361093 32.684097 0.230033
2005-01-14 08:23:31 51°20.711 3°2.086 7.236693 3.342135 32.539945 0.027777
2005-01-14 08:24:30 51°20.743 3°2.17 7.184242 3.331708 32.455117 0.263742
2005-01-14 08:25:30 51°20.771 3°2.252 7.160775 3.313277 32.309009 0.297452
2005-01-14 08:26:30 51°20.784 3°2.33 7.128416 3.305483 32.252407 0.533418
2005-01-14 08:27:30 51°20.798 3°2.406 7.114453 3.300428 32.211151 0.567127
2005-01-14 08:28:31 51°20.814 3°2.481 7.077149 3.297058 32.188111 0.769383
2005-01-14 08:29:30 51°20.83 3°2.551 7.046443 3.284736 32.09338 0.465999
2005-01-14 08:30:30 51°20.845 3°2.623 7.021497 3.277365 32.042686 0.701965
2005-01-14 08:31:31 51°20.862 3°2.695 7.00094 3.270625 31.989331 0.93793
2005-01-14 08:32:31 51°20.878 3°2.766 6.978733 3.264938 31.952073 0.870512
2005-01-14 08:33:31 51°20.897 3°2.836 6.958216 3.254618 31.861365 1.005349
2005-01-14 08:34:31 51°20.912 3°2.907 6.932653 3.253459 31.869221 0.701965
2005-01-14 08:35:31 51°20.928 3°2.977 6.919019 3.249142 31.842784 0.634546
2005-01-14 08:36:31 51°20.944 3°3.049 6.911378 3.247668 31.835418 0.465999
2005-01-14 08:37:31 51°20.956 3°3.124 6.926287 3.248615 31.837852 0.870512
2005-01-14 08:38:31 51°20.975 3°3.198 6.939071 3.250195 31.844788 0.803093
2005-01-14 08:39:31 51°20.997 3°3.27 6.921831 3.248194 31.830922 1.308734
2005-01-14 08:40:31 51°21.019 3°3.34 6.925067 3.246088 31.807272 0.97164
2005-01-14 08:41:31 51°21.041 3°3.409 6.929788 3.245561 31.797633 1.207606
2005-01-14 08:42:30 51°21.061 3°3.476 6.917799 3.243771 31.787614 1.308734
2005-01-14 08:43:31 51°21.082 3°3.546 6.904798 3.242613 31.77896 1.308734
2005-01-14 08:44:29 51°21.101 3°3.613 6.907664 3.241138 31.770012 1.376153
2005-01-14 08:45:31 51°21.122 3°3.684 6.898377 3.239664 31.754004 1.376153
2005-01-14 08:46:29 51°21.142 3°3.75 6.902994 3.23819 31.745834 1.5447
2005-01-14 08:47:31 51°21.162 3°3.819 6.902039 3.236926 31.733679 1.5447
2005-01-14 08:48:30 51°21.181 3°3.883 6.904055 3.235136 31.708757 1.072768
2005-01-14 08:49:29 51°21.201 3°3.944 6.912546 3.23482 31.699065 1.477281
2005-01-14 08:50:30 51°21.224 3°4.009 6.919231 3.234504 31.690942 1.308734
2005-01-14 08:51:30 51°21.245 3°4.069 6.906549 3.234293 31.688656 1.342443
2005-01-14 08:52:30 51°21.259 3°4.129 6.916366 3.234188 31.693772 1.308734
2005-01-14 08:53:31 51°21.27 3°4.193 6.922998 3.234925 31.697078 1.645828
2005-01-14 08:54:31 51°21.286 3°4.261 6.919072 3.23482 31.693588 1.848084
2005-01-14 08:55:31 51°21.303 3°4.334 6.919231 3.235346 31.694609 1.949212
2005-01-14 08:56:31 51°21.322 3°4.409 6.92199 3.235241 31.691902 2.320016
2005-01-14 08:57:31 51°21.338 3°4.481 6.929258 3.236083 31.699479 2.252597
2005-01-14 08:58:31 51°21.351 3°4.558 6.938222 3.238189 31.707468 2.218888
2005-01-14 08:59:31 51°21.366 3°4.637 6.945436 3.238716 31.706142 2.724529
2005-01-14 09:00:31 51°21.374 3°4.716 6.96373 3.240401 31.717376 3.533554
2005-01-14 09:01:31 51°21.383 3°4.793 6.96495 3.242086 31.728607 3.162751
2005-01-14 09:02:29 51°21.392 3°4.865 6.967229 3.244087 31.745605 2.589691
2005-01-14 09:03:31 51°21.404 3°4.928 6.971471 3.245982 31.761459 2.859366
2005-01-14 09:04:31 51°21.407 3°4.955 6.984458 3.246824 31.766678 2.286306
2005-01-14 09:05:31 51°21.374 3°5.012 6.976295 3.247983 31.779235 2.589691
2005-01-14 09:06:31 51°21.29 3°5.108 6.969933 3.247772 31.781649 2.825657
2005-01-14 09:07:31 51°21.203 3°5.244 6.965745 3.247246 31.77281 2.117759
2005-01-14 09:08:31 51°21.112 3°5.259 6.966169 3.244718 31.748543 3.466136
2005-01-14 09:09:31 51°21.044 3°5.2 6.958746 3.242507 31.734738 2.286306
2005-01-14 09:10:31 51°20.979 3°5.132 6.955777 3.240717 31.71611 3.499845
2005-01-14 09:11:31 51°20.922 3°5.06 6.964632 3.24019 31.711965 2.859366
2005-01-14 09:12:31 51°20.88 3°4.968 6.963147 3.240506 31.708356 2.859366
2005-01-14 09:13:31 51°20.847 3°4.881 6.962776 3.241033 31.717972 2.758238
2005-01-14 09:14:29 51°20.815 3°4.807 6.964579 3.241454 31.721757 2.117759
2005-01-14 09:15:29 51°20.79 3°4.724 6.961874 3.240822 31.719597 2.960494
2005-01-14 09:16:31 51°20.767 3°4.633 6.948777 3.239874 31.712448 3.23017
2005-01-14 09:17:31 51°20.742 3°4.549 6.953072 3.239137 31.711491 2.421144
2005-01-14 09:18:31 51°20.716 3°4.463 6.940185 3.239242 31.71107 2.825657
2005-01-14 09:19:31 51°20.69 3°4.379 6.929629 3.237874 31.710298 2.050341
2005-01-14 09:20:31 51°20.665 3°4.293 6.924855 3.23661 31.706757 2.387435
2005-01-14 09:21:31 51°20.641 3°4.208 6.919762 3.235873 31.700323 2.151469
2005-01-14 09:22:30 51°20.618 3°4.125 6.918329 3.235873 31.70267 1.982922
2005-01-14 09:23:31 51°20.593 3°4.039 6.914774 3.234925 31.697078 2.08405
2005-01-14 09:24:31 51°20.568 3°3.955 6.909946 3.234504 31.696418 1.679537
2005-01-14 09:25:31 51°20.544 3°3.869 6.901349 3.234083 31.694976 2.185178
2005-01-14 09:26:31 51°20.521 3°3.78 6.903684 3.233767 31.693894 1.443571
2005-01-14 09:27:29 51°20.502 3°3.693 6.902198 3.23324 31.690526 1.443571
2005-01-14 09:28:31 51°20.485 3°3.6 6.898748 3.233767 31.692329 1.241315
2005-01-14 09:29:31 51°20.468 3°3.512 6.900499 3.233135 31.693295 1.612118
2005-01-14 09:30:29 51°20.454 3°3.426 6.894078 3.232925 31.687878 1.848084
2005-01-14 09:31:29 51°20.442 3°3.336 6.89429 3.232714 31.689504 2.117759
2005-01-14 09:32:31 51°20.428 3°3.242 6.887496 3.232819 31.692996 2.050341
2005-01-14 09:33:31 51°20.414 3°3.148 6.885319 3.233346 31.699497 1.881794
2005-01-14 09:34:31 51°20.404 3°3.051 6.893281 3.233451 31.702206 2.117759
2005-01-14 09:35:30 51°20.398 3°2.955 6.889141 3.234083 31.708285 2.286306
2005-01-14 09:36:31 51°20.391 3°2.856 6.894927 3.234609 31.71087 2.387435
2005-01-14 09:37:31 51°20.385 3°2.757 6.892008 3.235136 31.714238 2.421144
2005-01-14 09:38:31 51°20.377 3°2.656 6.898324 3.23482 31.715507 1.746956
2005-01-14 09:39:31 51°20.37 3°2.53 6.893653 3.235347 31.718092 2.353725
2005-01-14 09:40:31 51°20.362 3°2.385 6.888027 3.235452 31.720019 1.679537
2005-01-14 09:41:29 51°20.351 3°2.236 6.899013 3.236294 31.729168 1.915503
2005-01-14 09:42:31 51°20.334 3°2.094 6.896944 3.236505 31.731455 2.151469
2005-01-14 09:43:31 51°20.314 3°1.992 6.898854 3.237453 31.737046 1.915503
2005-01-14 09:44:31 51°20.296 3°1.907 6.906974 3.237874 31.740052 1.780665
2005-01-14 09:45:31 51°20.281 3°1.833 6.918329 3.239559 31.750509 2.421144
2005-01-14 09:46:31 51°20.267 3°1.766 6.915305 3.241138 31.765307 2.353725
2005-01-14 09:47:31 51°20.25 3°1.689 6.923582 3.242507 31.775464 2.387435
2005-01-14 09:48:31 51°20.2 3°1.468 6.936154 3.244719 31.793196 1.848084
2005-01-14 09:49:31 51°20.138 3°1.135 6.998184 3.257356 31.886351 1.308734
2005-01-14 09:50:31 51°20.046 3°0.812 7.073655 3.274521 32.032357 1.443571
2005-01-14 09:51:31 51°20.01 3°0.465 7.15052 3.2959 32.185049 1.308734
2005-01-14 09:52:31 51°19.955 3°0.115 7.209126 3.317806 32.357979 0.97164
2005-01-14 09:53:31 51°19.939 2°59.75 7.310994 3.344662 32.565654 0.735674
2005-01-14 09:54:31 51°19.883 2°59.389 7.379626 3.370046 32.772714 0.432289
2005-01-14 09:55:31 51°19.855 2°59.017 7.464974 3.40017 33.015106 0.297452
2005-01-14 09:56:29 51°19.8 2°58.66 7.514994 3.422817 33.201205 0.230033
2005-01-14 09:57:31 51°19.759 2°58.272 7.608934 3.451258 33.430652 0.230033
2005-01-14 09:58:31 51°19.688 2°57.903 7.644994 3.468113 33.556013 0.331161
2005-01-14 09:59:29 51°19.605 2°57.553 7.644679 3.473907 33.59557 0.364871
2005-01-14 10:00:31 51°19.509 2°57.182 7.659842 3.472642 33.575503 0.39858
2005-01-14 10:01:31 51°19.418 2°56.822 7.676418 3.478226 33.620875 0.297452
2005-01-14 10:02:31 51°19.328 2°56.459 7.693671 3.486864 33.699028 0.263742
2005-01-14 10:03:30 51°19.239 2°56.101 7.708403 3.49487 33.771991 0.432289
2005-01-14 10:04:31 51°19.15 2°55.731 7.712964 3.498136 33.794029 0.263742
2005-01-14 10:05:31 51°19.062 2°55.366 7.719254 3.500875 33.819362 0.331161
2005-01-14 10:06:29 51°18.977 2°55.012 7.72198 3.50372 33.84664 0.39858
2005-01-14 10:07:31 51°18.885 2°54.633 7.735448 3.507512 33.881648 0.331161
2005-01-14 10:08:31 51°18.795 2°54.268 7.751691 3.512464 33.917656 0.39858
2005-01-14 10:09:31 51°18.707 2°53.901 7.775733 3.516678 33.945729 0.364871
2005-01-14 10:10:31 51°18.618 2°53.535 7.787776 3.519733 33.958901 0.263742
2005-01-14 10:11:30 51°18.52 2°53.181 7.80453 3.52184 33.96843 0.39858
2005-01-14 10:12:31 51°18.397 2°52.833 7.817353 3.523525 33.974254 0.634546
2005-01-14 10:13:30 51°18.228 2°52.563 7.817824 3.524368 33.975941 0.465999
2005-01-14 10:14:31 51°17.991 2°52.446 7.833628 3.524684 33.972799 0.567127
2005-01-14 10:15:31 51°17.754 2°52.339 7.848172 3.526791 33.97824 0.39858
2005-01-14 10:16:31 51°17.516 2°52.287 7.853926 3.52816 33.982305 0.364871
2005-01-14 10:17:31 51°17.274 2°52.303 7.862504 3.528792 33.972769 0.39858
2005-01-14 10:18:29 51°17.041 2°52.316 7.861876 3.528371 33.971518 0.331161
2005-01-14 10:19:31 51°16.793 2°52.32 7.848068 3.526896 33.963063 0.364871
2005-01-14 10:20:31 51°16.554 2°52.337 7.825779 3.523841 33.955613 0.364871
2005-01-14 10:21:31 51°16.307 2°52.346 7.806519 3.52068 33.938058 0.364871
2005-01-14 10:22:31 51°16.063 2°52.348 7.779084 3.515202 33.898093 0.230033
2005-01-14 10:23:31 51°15.821 2°52.345 7.750276 3.509724 33.868689 0.297452
2005-01-14 10:24:31 51°15.58 2°52.343 7.726697 3.504562 33.836938 0.297452
2005-01-14 10:25:31 51°15.339 2°52.341 7.735605 3.498452 33.777073 0.162614
2005-01-14 10:26:31 51°15.1 2°52.342 7.717786 3.493922 33.729286 0.297452
2005-01-14 10:27:31 51°14.903 2°52.366 7.723552 3.49034 33.707099 0.364871
2005-01-14 10:28:31 51°14.811 2°52.349 7.747499 3.493922 33.723601 0.263742
2005-01-14 10:29:30 51°14.778 2°52.307 7.760177 3.495291 33.722051 0.297452
2005-01-14 10:30:31 51°14.759 2°52.262 7.767772 3.495607 33.720571 0.263742
2005-01-14 10:31:31 51°14.744 2°52.221 7.772067 3.496134 33.718105 0.263742
2005-01-14 10:32:29 51°14.729 2°52.186 7.78165 3.496555 33.716943 0.331161
2005-01-14 10:33:31 51°14.716 2°52.151 7.772171 3.497187 33.719662 0.364871
2005-01-14 10:34:31 51°14.705 2°52.12 7.775261 3.496661 33.718883 0.364871
2005-01-14 10:35:31 51°14.693 2°52.068 7.774266 3.496555 33.716943 0.263742
2005-01-14 10:36:31 51°14.675 2°51.968 7.770391 3.496977 33.716594 0.364871
2005-01-14 10:37:31 51°14.652 2°51.848 7.775157 3.497082 33.719344 0.263742
2005-01-14 10:38:31 51°14.625 2°51.727 7.775785 3.497187 33.721284 0.331161
2005-01-14 10:39:31 51°14.603 2°51.629 7.778246 3.497925 33.725942 0.297452
2005-01-14 10:40:31 51°14.583 2°51.544 7.779241 3.498557 33.731092 0.331161
2005-01-14 10:41:31 51°14.562 2°51.459 7.783692 3.499083 33.731059 0.39858
2005-01-14 10:42:31 51°14.542 2°51.372 7.787358 3.499505 33.738006 0.364871
2005-01-14 10:43:31 51°14.522 2°51.284 7.786258 3.499821 33.738959 0.432289
2005-01-14 10:44:29 51°14.502 2°51.199 7.784111 3.500242 33.74104 0.39858
2005-01-14 10:45:29 51°14.48 2°51.111 7.787253 3.500769 33.746683 0.297452
2005-01-14 10:46:29 51°14.456 2°51.026 7.789714 3.50119 33.751197 0.432289
2005-01-14 10:47:31 51°14.43 2°50.94 7.795578 3.501612 33.750844 0.331161
2005-01-14 10:48:30 51°14.404 2°50.86 7.794845 3.502244 33.755992 0.465999
2005-01-14 10:49:31 51°14.378 2°50.776 7.792593 3.502244 33.756803 0.39858
2005-01-14 10:50:31 51°14.351 2°50.694 7.793483 3.502771 33.763257 0.331161
2005-01-14 10:51:31 51°14.325 2°50.61 7.798143 3.502981 33.762269 0.39858
2005-01-14 10:52:31 51°14.298 2°50.526 7.796049 3.503508 33.765476 0.331161
2005-01-14 10:53:31 51°14.272 2°50.441 7.803744 3.503613 33.765793 0.297452
2005-01-14 10:54:29 51°14.246 2°50.36 7.801022 3.503929 33.769179 0.499708
2005-01-14 10:55:31 51°14.22 2°50.271 7.803221 3.504246 33.771752 0.364871
2005-01-14 10:56:31 51°14.194 2°50.186 7.797567 3.504246 33.772564 0.364871
2005-01-14 10:57:31 51°14.166 2°50.102 7.802854 3.504667 33.777889 0.230033
2005-01-14 10:58:30 51°14.141 2°50.018 7.809084 3.505404 33.779294 0.364871
2005-01-14 10:59:31 51°14.114 2°49.931 7.81034 3.506142 33.786381 0.364871
2005-01-14 11:00:31 51°14.087 2°49.847 7.809973 3.506352 33.788637 0.465999
2005-01-14 11:01:30 51°14.06 2°49.764 7.814475 3.506879 33.787785 0.499708
2005-01-14 11:02:31 51°14.034 2°49.68 7.813637 3.507511 33.792118 0.432289
2005-01-14 11:03:31 51°14.005 2°49.602 7.814422 3.507617 33.793246 0.432289
2005-01-14 11:04:31 51°13.98 2°49.523 7.812643 3.506879 33.787785 0.39858
2005-01-14 11:05:31 51°13.955 2°49.441 7.81013 3.506352 33.782144 0.331161
2005-01-14 11:06:31 51°13.929 2°49.36 7.814422 3.505299 33.773297 0.465999
2005-01-14 11:07:30 51°13.904 2°49.28 7.805681 3.503297 33.759163 0.600836
2005-01-14 11:08:29 51°13.878 2°49.198 7.80097 3.502138 33.748375 0.297452
2005-01-14 11:09:30 51°13.849 2°49.105 7.793588 3.500769 33.73614 0.364871
2005-01-14 11:10:31 51°13.82 2°49.005 7.793065 3.499715 33.72729 0.499708
2005-01-14 11:11:31 51°13.796 2°48.902 7.794112 3.498767 33.722809 0.297452
2005-01-14 11:12:31 51°13.781 2°48.801 7.78254 3.497819 33.716705 0.533418
2005-01-14 11:13:31 51°13.773 2°48.723 7.789347 3.497503 33.71332 0.297452
2005-01-14 11:14:30 51°13.782 2°48.636 7.79296 3.497609 33.712017 0.39858
2005-01-14 11:15:31 51°13.846 2°48.643 7.778822 3.49961 33.720489 0.364871
2005-01-14 11:16:31 51°13.892 2°48.713 7.785106 3.498873 33.72718 0.39858
2005-01-14 11:17:31 51°13.927 2°48.794 7.785054 3.500558 33.741181 0.39858
2005-01-14 11:18:31 51°13.956 2°48.882 7.792593 3.502455 33.759872 0.39858
2005-01-14 11:19:31 51°13.988 2°48.966 7.802488 3.505194 33.784343 0.39858
2005-01-14 11:20:31 51°14.018 2°49.041 7.802279 3.507722 33.807367 0.499708
2005-01-14 11:21:31 51°14.043 2°49.109 7.804739 3.508776 33.816214 0.465999
2005-01-14 11:22:31 51°14.068 2°49.177 7.797044 3.509302 33.820231 0.364871
2005-01-14 11:23:29 51°14.093 2°49.242 7.798248 3.508986 33.818471 0.465999
2005-01-14 11:24:29 51°14.118 2°49.31 7.80097 3.508986 33.817658 0.499708
2005-01-14 11:25:31 51°14.145 2°49.379 7.799504 3.508249 33.816259 0.499708
2005-01-14 11:26:31 51°14.171 2°49.446 7.784425 3.507406 33.812106 0.499708
2005-01-14 11:27:30 51°14.197 2°49.512 7.778299 3.506774 33.806958 0.364871
2005-01-14 11:28:31 51°14.224 2°49.58 7.773585 3.505405 33.799597 0.465999
2005-01-14 11:29:31 51°14.247 2°49.649 7.773062 3.503719 33.792096 0.432289
2005-01-14 11:30:31 51°14.269 2°49.72 7.757715 3.502244 33.780349 0.331161
2005-01-14 11:31:30 51°14.29 2°49.789 7.752738 3.500559 33.770405 0.465999
2005-01-14 11:32:31 51°14.312 2°49.861 7.749385 3.4994 33.760418 0.432289
2005-01-14 11:33:29 51°14.335 2°49.929 7.745666 3.498136 33.756611 0.465999
2005-01-14 11:34:31 51°14.362 2°49.998 7.736339 3.497504 33.750645 0.499708
2005-01-14 11:35:29 51°14.39 2°50.06 7.744461 3.496766 33.746798 0.499708
2005-01-14 11:36:31 51°14.418 2°50.128 7.739535 3.496345 33.743903 0.432289
2005-01-14 11:37:31 51°14.445 2°50.194 7.741055 3.495713 33.736312 0.432289
2005-01-14 11:38:31 51°14.472 2°50.261 7.74205 3.496345 33.742279 0.297452
2005-01-14 11:39:31 51°14.5 2°50.328 7.738749 3.49645 33.741784 0.465999
2005-01-14 11:40:31 51°14.528 2°50.394 7.741841 3.496555 33.742102 0.297452
2005-01-14 11:41:31 51°14.555 2°50.463 7.742941 3.496872 33.745491 0.634546
2005-01-14 11:42:31 51°14.582 2°50.53 7.739745 3.496977 33.747433 0.465999
2005-01-14 11:43:31 51°14.609 2°50.599 7.741788 3.497188 33.750505 0.465999
2005-01-14 11:44:29 51°14.636 2°50.664 7.743413 3.497714 33.75128 0.499708
2005-01-14 11:45:31 51°14.664 2°50.734 7.74729 3.49782 33.759722 0.533418
2005-01-14 11:46:31 51°14.688 2°50.807 7.740321 3.498346 33.758058 0.39858
2005-01-14 11:47:31 51°14.709 2°50.881 7.740059 3.498346 33.762121 0.533418
2005-01-14 11:48:31 51°14.72 2°50.975 7.745666 3.498979 33.765649 0.364871
2005-01-14 11:49:29 51°14.706 2°51.076 7.737963 3.498452 33.764063 0.39858
2005-01-14 11:50:31 51°14.673 2°51.161 7.738173 3.498346 33.760496 0.331161
2005-01-14 11:51:31 51°14.637 2°51.195 7.741631 3.49782 33.758909 0.533418
2005-01-14 11:52:31 51°14.608 2°51.207 7.739431 3.497082 33.751 0.39858
2005-01-14 11:53:31 51°14.581 2°51.213 7.735029 3.496766 33.744361 0.465999
2005-01-14 11:54:31 51°14.532 2°51.185 7.743937 3.496029 33.733205 0.533418
2005-01-14 11:55:31 51°14.503 2°51.131 7.737754 3.495081 33.727909 0.432289
2005-01-14 11:56:31 51°14.488 2°51.086 7.738487 3.494027 33.718236 0.465999
2005-01-14 11:57:31 51°14.475 2°51.038 7.739483 3.494132 33.719365 0.364871
2005-01-14 11:58:31 51°14.468 2°50.865 7.74708 3.494238 33.71806 0.499708
2005-01-14 11:59:31 51°14.474 2°50.586 7.736758 3.494238 33.722119 0.499708
2005-01-14 12:00:31 51°14.475 2°50.316 7.755515 3.496134 33.737583 0.331161
2005-01-14 12:01:29 51°14.484 2°50.148 7.738645 3.497504 33.750645 0.465999
2005-01-14 12:02:31 51°14.499 2°50.013 7.740007 3.498557 33.766819 0.465999
2005-01-14 12:03:31 51°14.462 2°49.796 7.751691 3.499716 33.779249 0.465999
2005-01-14 12:04:29 51°14.357 2°49.486 7.758291 3.502455 33.793175 0.432289
2005-01-14 12:05:31 51°14.236 2°49.145 7.774161 3.503508 33.793088 0.432289
2005-01-14 12:06:31 51°14.106 2°48.825 7.771648 3.503403 33.791959 0.364871
2005-01-14 12:07:30 51°13.957 2°48.533 7.777723 3.504457 33.799188 0.364871
2005-01-14 12:08:30 51°13.802 2°48.243 7.778456 3.502876 33.779 0.567127
2005-01-14 12:09:30 51°13.648 2°47.951 7.776623 3.503087 33.778009 0.567127
2005-01-14 12:10:31 51°13.493 2°47.656 7.784111 3.504772 33.796073 0.432289
2005-01-14 12:11:31 51°13.346 2°47.36 7.7983 3.50709 33.813596 0.364871
2005-01-14 12:12:30 51°13.209 2°47.064 7.804058 3.507722 33.813054 0.465999
2005-01-14 12:13:31 51°13.067 2°46.757 7.819865 3.508986 33.818471 0.465999
2005-01-14 12:14:31 51°12.927 2°46.457 7.824837 3.511515 33.833363 0.364871
2005-01-14 12:15:31 51°12.786 2°46.154 7.824261 3.513095 33.842158 0.465999
2005-01-14 12:16:31 51°12.645 2°45.856 7.829494 3.514148 33.849375 0.533418
2005-01-14 12:17:30 51°12.516 2°45.558 7.853612 3.516045 33.865613 0.432289
2005-01-14 12:18:31 51°12.481 2°45.197 7.8488 3.518889 33.885493 0.364871
2005-01-14 12:19:31 51°12.447 2°44.842 7.855391 3.520575 33.890525 0.533418
2005-01-14 12:20:31 51°12.404 2°44.483 7.863393 3.521944 33.909248 0.465999
2005-01-14 12:21:31 51°12.346 2°44.122 7.872859 3.524051 33.920407 0.499708
2005-01-14 12:22:31 51°12.278 2°43.762 7.882637 3.524156 33.91584 0.432289
2005-01-14 12:23:30 51°12.205 2°43.417 7.870662 3.525105 33.926798 0.432289
2005-01-14 12:24:31 51°12.118 2°43.069 7.878245 3.525947 33.931747 0.499708
2005-01-14 12:25:29 51°12.038 2°42.734 7.8795 3.526474 33.935755 0.432289
2005-01-14 12:26:31 51°11.937 2°42.388 7.885356 3.527212 33.941204 0.533418
2005-01-14 12:27:31 51°11.82 2°42.069 7.907729 3.529951 33.955042 0.331161
2005-01-14 12:28:31 51°11.702 2°41.753 7.946184 3.534165 33.974063 0.701965
2005-01-14 12:29:31 51°11.57 2°41.454 7.974019 3.539116 33.996876 0.499708
2005-01-14 12:30:31 51°11.434 2°41.16 7.995005 3.542276 34.002172 0.634546
2005-01-14 12:31:31 51°11.298 2°40.865 8.000277 3.543225 33.999293 0.769383
2005-01-14 12:32:31 51°11.14 2°40.598 8.008836 3.543541 33.996981 0.701965
2005-01-14 12:33:31 51°10.98 2°40.336 8.008523 3.543962 33.998229 0.533418
2005-01-14 12:34:30 51°10.836 2°40.098 8.00607 3.544173 33.998853 0.634546
2005-01-14 12:35:29 51°10.754 2°39.998 8.005235 3.543751 33.999229 0.701965
2005-01-14 12:36:30 51°10.728 2°39.933 8.00393 3.543646 33.996481 0.465999
2005-01-14 12:37:29 51°10.727 2°39.898 8.002678 3.543435 33.995857 0.533418
2005-01-14 12:38:30 51°10.728 2°39.87 8.011184 3.543857 33.996294 0.533418
2005-01-14 12:39:31 51°10.727 2°39.848 8.019585 3.544805 33.996666 0.465999
2005-01-14 12:40:31 51°10.726 2°39.831 8.016454 3.545121 33.995979 0.533418
2005-01-14 12:41:31 51°10.724 2°39.819 8.024959 3.545121 33.997602 0.634546
2005-01-14 12:42:29 51°10.702 2°39.779 8.023968 3.545437 34.000161 0.668255
2005-01-14 12:43:29 51°10.652 2°39.697 8.03028 3.545647 33.993483 0.701965
2005-01-14 12:44:31 51°10.605 2°39.573 8.028663 3.546385 33.997289 0.499708
2005-01-14 12:45:31 51°10.562 2°39.465 8.030437 3.545858 33.994107 0.533418
2005-01-14 12:46:31 51°10.529 2°39.37 8.035288 3.545963 33.989553 0.533418
2005-01-14 12:47:31 51°10.498 2°39.281 8.036801 3.545542 33.985061 0.567127
2005-01-14 12:48:31 51°10.468 2°39.196 8.041183 3.545858 33.981945 0.735674
2005-01-14 12:49:31 51°10.437 2°39.116 8.040348 3.545542 33.982629 0.297452
2005-01-14 12:50:29 51°10.407 2°39.042 8.04113 3.545753 33.980012 0.331161
2005-01-14 12:51:31 51°10.376 2°38.964 8.042643 3.545542 33.977766 0.432289
2005-01-14 12:52:30 51°10.346 2°38.89 8.03774 3.545015 33.976205 0.600836
2005-01-14 12:53:29 51°10.318 2°38.817 8.039409 3.544804 33.973149 0.39858
2005-01-14 12:54:29 51°10.292 2°38.746 8.042487 3.544594 33.970094 0.465999
2005-01-14 12:55:31 51°10.269 2°38.671 8.038157 3.544278 33.968346 0.668255
2005-01-14 12:56:29 51°10.25 2°38.603 8.043217 3.544488 33.967351 0.634546
2005-01-14 12:57:31 51°10.23 2°38.532 8.040244 3.543962 33.963358 0.533418
2005-01-14 12:58:31 51°10.21 2°38.464 8.04572 3.543961 33.960118 0.533418
2005-01-14 12:59:29 51°10.189 2°38.402 8.056568 3.543961 33.95445 0.331161
2005-01-14 13:00:31 51°10.161 2°38.342 8.062408 3.544804 33.953713 0.701965
2005-01-14 13:01:30 51°10.134 2°38.287 8.064702 3.545331 33.95123 0.432289
2005-01-14 13:02:29 51°10.107 2°38.233 8.075651 3.545542 33.951856 0.600836
2005-01-14 13:03:31 51°10.082 2°38.174 8.077319 3.546174 33.950496 0.465999
2005-01-14 13:04:31 51°10.059 2°38.117 8.082167 3.546068 33.946948 0.499708
2005-01-14 13:05:30 51°10.036 2°38.061 8.091601 3.546806 33.945095 0.634546
2005-01-14 13:06:31 51°10.013 2°38.004 8.099679 3.547016 33.941679 0.432289
2005-01-14 13:07:30 51°9.992 2°37.949 8.10958 3.547859 33.941758 0.701965
2005-01-14 13:08:30 51°9.971 2°37.893 8.111925 3.547964 33.938839 0.567127
2005-01-14 13:09:30 51°9.949 2°37.838 8.115051 3.54807 33.936729 0.465999
2005-01-14 13:10:30 51°9.926 2°37.776 8.114426 3.548596 33.938293 0.297452
2005-01-14 13:11:30 51°9.899 2°37.707 8.118021 3.548596 33.938293 1.039059
2005-01-14 13:12:30 51°9.868 2°37.638 8.111039 3.548491 33.942019 0.331161
2005-01-14 13:13:31 51°9.837 2°37.569 8.103848 3.548175 33.94108 0.465999
2005-01-14 13:14:31 51°9.81 2°37.5 8.109684 3.547754 33.941445 0.499708
2005-01-14 13:15:31 51°9.791 2°37.428 8.108799 3.547964 33.938839 0.701965
2005-01-14 13:16:31 51°9.786 2°37.349 8.120469 3.547964 33.938031 0.364871
2005-01-14 13:17:31 51°9.798 2°37.3 8.116302 3.548386 33.935245 0.600836
2005-01-14 13:18:29 51°9.816 2°37.277 8.122136 3.549018 33.937122 0.567127
2005-01-14 13:19:31 51°9.839 2°37.27 8.128388 3.549018 33.931472 0.600836
2005-01-14 13:20:31 51°9.883 2°37.265 8.145471 3.54965 33.934156 0.668255
2005-01-14 13:21:30 51°9.951 2°37.338 8.143232 3.551125 33.936922 0.634546
2005-01-14 13:22:31 51°10.009 2°37.44 8.146461 3.55123 33.939655 0.567127
2005-01-14 13:23:30 51°10.016 2°37.621 8.184361 3.553337 33.944295 0.600836
2005-01-14 13:24:31 51°9.846 2°37.819 8.14745 3.553021 33.943357 0.465999
2005-01-14 13:25:31 51°9.649 2°38.007 8.134638 3.550703 33.938898 0.432289
2005-01-14 13:26:31 51°9.452 2°38.19 8.081594 3.546068 33.915441 0.465999
2005-01-14 13:27:31 51°9.354 2°38.347 8.056881 3.536059 33.851728 0.364871
2005-01-14 13:28:31 51°9.361 2°38.481 8.058967 3.530476 33.801168 0.39858
2005-01-14 13:29:30 51°9.393 2°38.61 8.044677 3.529843 33.792829 0.331161
2005-01-14 13:30:29 51°9.421 2°38.745 8.038731 3.528053 33.784238 0.364871
2005-01-14 13:31:31 51°9.445 2°38.86 8.034506 3.527104 33.778977 0.364871
2005-01-14 13:32:31 51°9.466 2°38.956 8.031637 3.526262 33.776448 0.39858
2005-01-14 13:33:31 51°9.487 2°39.042 8.032993 3.526156 33.772105 0.432289
2005-01-14 13:34:30 51°9.508 2°39.12 8.039931 3.526051 33.771788 0.465999
2005-01-14 13:35:31 51°9.531 2°39.197 8.044208 3.525946 33.770667 0.533418
2005-01-14 13:36:31 51°9.552 2°39.271 8.036801 3.526051 33.770983 0.432289
2005-01-14 13:37:31 51°9.572 2°39.344 8.045355 3.526367 33.771932 0.533418
2005-01-14 13:38:30 51°9.592 2°39.419 8.037688 3.525946 33.767445 0.331161
2005-01-14 13:39:31 51°9.612 2°39.501 8.039201 3.526051 33.770178 0.533418
2005-01-14 13:40:29 51°9.631 2°39.583 8.045303 3.526156 33.769688 0.567127
2005-01-14 13:41:31 51°9.651 2°39.672 8.048537 3.526262 33.772421 0.465999
2005-01-14 13:42:31 51°9.671 2°39.759 8.036019 3.526262 33.77081 0.600836
2005-01-14 13:43:31 51°9.69 2°39.847 8.034141 3.525946 33.768251 0.499708
2005-01-14 13:44:31 51°9.713 2°39.934 8.03341 3.526156 33.771299 0.465999
2005-01-14 13:45:30 51°9.738 2°40.019 8.031324 3.52563 33.769718 0.432289
2005-01-14 13:46:31 51°9.762 2°40.108 8.037271 3.525946 33.773889 0.499708
2005-01-14 13:47:39 51°9.788 2°40.207 8.03148 3.525946 33.773083 0.668255
2005-01-14 13:48:39 51°9.811 2°40.296 8.034245 3.526472 33.772248 0.600836
2005-01-14 13:49:38 51°9.831 2°40.384 8.035184 3.526367 33.775959 0.567127
2005-01-14 13:50:39 51°9.851 2°40.476 8.039983 3.526578 33.775786 0.533418
2005-01-14 13:51:39 51°9.87 2°40.566 8.032837 3.526156 33.774521 0.634546
2005-01-14 13:52:38 51°9.888 2°40.666 8.034454 3.526367 33.775153 0.701965
2005-01-14 13:53:39 51°9.909 2°40.791 8.027933 3.526894 33.776734 0.331161
2005-01-14 13:54:39 51°9.928 2°40.923 8.03148 3.525735 33.772451 0.634546
2005-01-14 13:55:37 51°9.947 2°41.055 8.018959 3.52584 33.769545 0.533418
2005-01-14 13:56:39 51°9.968 2°41.197 8.024437 3.525524 33.767791 0.533418
2005-01-14 13:57:38 51°9.985 2°41.314 8.024855 3.525524 33.76618 0.634546
2005-01-14 13:58:37 51°9.998 2°41.42 8.020368 3.525735 33.771645 0.668255
2005-01-14 13:59:39 51°10.022 2°41.668 8.022298 3.525735 33.766813 0.634546
2005-01-14 14:00:37 51°10.093 2°41.965 8.012854 3.524787 33.759939 0.634546
2005-01-14 14:01:38 51°10.167 2°42.258 8.021098 3.525103 33.762499 0.533418
2005-01-14 14:02:39 51°10.22 2°42.441 8.014576 3.524997 33.76782 0.364871
2005-01-14 14:03:39 51°10.26 2°42.578 8.016507 3.524365 33.770756 0.533418
2005-01-14 14:04:39 51°10.25 2°42.698 8.005026 3.525314 33.774408 0.567127
2005-01-14 14:05:37 51°10.234 2°42.76 7.99939 3.523523 33.768226 0.600836
2005-01-14 14:06:38 51°10.229 2°42.806 8.000538 3.521942 33.75542 0.465999
2005-01-14 14:07:39 51°10.231 2°42.843 7.997145 3.520784 33.748714 0.634546
2005-01-14 14:08:38 51°10.236 2°42.879 8.000538 3.520889 33.746613 0.567127
2005-01-14 14:09:39 51°10.244 2°42.913 7.993335 3.52131 33.74627 0.432289
2005-01-14 14:10:38 51°10.232 2°42.95 7.996519 3.519835 33.742639 0.533418
2005-01-14 14:11:39 51°10.224 2°43.1 7.986288 3.519519 33.740077 0.701965
2005-01-14 14:12:38 51°10.318 2°43.402 7.986236 3.517518 33.72197 0.735674
2005-01-14 14:13:39 51°10.411 2°43.774 7.973497 3.517307 33.72053 0.701965
2005-01-14 14:14:39 51°10.502 2°44.142 7.965091 3.515938 33.715599 0.93793
2005-01-14 14:15:39 51°10.593 2°44.513 7.97522 3.516043 33.718333 0.803093
2005-01-14 14:16:38 51°10.68 2°44.877 7.963942 3.515516 33.714329 0.93793
2005-01-14 14:17:37 51°10.769 2°45.237 7.950467 3.513093 33.695748 0.634546
2005-01-14 14:18:39 51°10.865 2°45.615 7.918233 3.50909 33.679635 0.93793
2005-01-14 14:19:38 51°10.957 2°45.975 7.887865 3.505614 33.669935 0.769383
2005-01-14 14:20:39 51°11.068 2°46.336 7.858843 3.501716 33.655725 0.634546
2005-01-14 14:21:38 51°11.174 2°46.687 7.834674 3.497081 33.632814 0.600836
2005-01-14 14:22:39 51°11.306 2°47.03 7.808612 3.493183 33.620184 0.634546
2005-01-14 14:23:39 51°11.438 2°47.367 7.799295 3.48918 33.589469 0.634546
2005-01-14 14:24:38 51°11.565 2°47.701 7.797567 3.486546 33.567747 0.600836
2005-01-14 14:25:39 51°11.697 2°48.045 7.793955 3.484018 33.547953 0.735674
2005-01-14 14:26:39 51°11.827 2°48.386 7.811334 3.483702 33.533295 0.769383
2005-01-14 14:27:38 51°11.96 2°48.716 7.824 3.485071 33.531838 0.870512
2005-01-14 14:28:38 51°12.104 2°49.044 7.827663 3.486968 33.54567 0.769383
2005-01-14 14:29:39 51°12.249 2°49.377 7.824 3.484123 33.516877 0.600836
2005-01-14 14:30:38 51°12.389 2°49.701 7.824471 3.480963 33.4831 0.634546
2005-01-14 14:31:39 51°12.534 2°50.036 7.819865 3.47696 33.442732 0.567127
2005-01-14 14:32:39 51°12.677 2°50.363 7.81369 3.472219 33.396891 0.39858
2005-01-14 14:33:39 51°12.82 2°50.692 7.807199 3.473272 33.414563 0.533418
2005-01-14 14:34:38 51°12.962 2°51.017 7.804791 3.477908 33.468927 0.735674
2005-01-14 14:35:39 51°13.106 2°51.354 7.803168 3.478856 33.480671 0.331161
2005-01-14 14:36:39 51°13.249 2°51.685 7.804948 3.476328 33.452836 0.600836
2005-01-14 14:37:38 51°13.392 2°52.01 7.806885 3.475696 33.444473 0.600836
2005-01-14 14:38:39 51°13.539 2°52.348 7.806466 3.475379 33.439489 0.668255
2005-01-14 14:39:39 51°13.682 2°52.679 7.793955 3.474221 33.433524 0.735674
2005-01-14 14:40:39 51°13.825 2°53.011 7.788352 3.473694 33.437529 0.600836
2005-01-14 14:41:39 51°13.969 2°53.342 7.778299 3.47401 33.447336 0.634546
2005-01-14 14:42:37 51°14.109 2°53.661 7.767458 3.474326 33.461972 0.39858
2005-01-14 14:43:39 51°14.258 2°54.005 7.752476 3.474537 33.47549 0.432289
2005-01-14 14:44:38 51°14.402 2°54.327 7.742574 3.474959 33.493691 0.465999
2005-01-14 14:45:38 51°14.441 2°54.693 7.726068 3.476434 33.515934 0.364871
2005-01-14 14:46:38 51°14.38 2°55.028 7.700907 3.471693 33.484501 0.533418
2005-01-14 14:47:39 51°14.251 2°55.273 7.560667 3.370569 32.478528 0.533418
2005-01-14 14:48:38 51°14.127 2°55.424 7.54175 3.16226 30.344244 0.97164
2005-01-14 14:49:38 51°13.991 2°55.523 7.673953 3.14436 30.098252 0.870512
2005-01-14 14:50:38 51°13.866 2°55.612 7.735239 3.141937 29.987246 0.803093
2005-01-14 14:51:38 51°13.761 2°55.716 7.735448 2.894451 27.368727 0.870512
2005-01-14 14:52:37 51°13.69 2°55.845 7.76222 2.663071 24.977008 0.904221
2005-01-14 14:53:38 51°13.642 2°55.956 7.791442 2.573978 24.026826 1.005349
2005-01-14 14:54:37 51°13.61 2°56.047 7.822639 2.556835 23.836285 0.904221
2005-01-14 14:55:38 51°13.596 2°56.098 7.795839 2.520762 23.453292 0.93793